createdAt,value
2022-07-25T00:00:48.551Z,1.50
2022-07-25T00:03:18.581Z,1.30
2022-07-25T00:05:46.800Z,1.17
2022-07-25T00:08:14.416Z,1.10
2022-07-25T00:10:42.193Z,1.10
2022-07-25T00:13:09.752Z,1.27
2022-07-25T00:15:37.588Z,1.37
2022-07-25T00:18:05.501Z,1.10
2022-07-25T00:20:33.088Z,1.27
2022-07-25T00:23:00.679Z,1.40
2022-07-25T00:25:28.226Z,1.40
2022-07-25T00:27:55.861Z,1.30
2022-07-25T00:30:23.433Z,1.20
2022-07-25T00:32:51.059Z,1.00
2022-07-25T00:35:18.606Z,1.10
2022-07-25T00:37:46.329Z,1.20
2022-07-25T00:40:14.100Z,1.20
2022-07-25T00:42:41.850Z,1.20
2022-07-25T00:45:10.108Z,1.25
2022-07-25T00:47:37.722Z,1.27
2022-07-25T00:50:05.848Z,1.35
2022-07-25T00:52:34.881Z,1.30
2022-07-25T00:55:02.615Z,1.27
2022-07-25T00:57:30.139Z,1.47
2022-07-25T00:59:57.760Z,1.07
2022-07-25T01:02:25.396Z,1.20
2022-07-25T01:04:54.516Z,1.20
2022-07-25T01:07:22.318Z,1.00
2022-07-25T01:09:49.900Z,1.15
2022-07-25T01:12:17.624Z,1.20
2022-07-25T01:14:45.356Z,1.10
2022-07-25T01:17:13.622Z,1.10
2022-07-25T01:19:41.159Z,1.25
2022-07-25T01:22:08.825Z,1.00
2022-07-25T01:24:37.506Z,1.30
2022-07-25T01:29:32.657Z,1.20
2022-07-25T01:32:00.332Z,1.10
2022-07-25T01:34:27.950Z,1.30
2022-07-25T01:36:56.017Z,1.23
2022-07-25T01:39:23.649Z,1.00
2022-07-25T01:41:51.459Z,1.00
2022-07-25T01:44:19.121Z,1.63
2022-07-25T01:46:46.842Z,1.20
2022-07-25T01:49:14.599Z,1.00
2022-07-25T01:51:42.348Z,1.43
2022-07-25T01:54:10.542Z,1.30
2022-07-25T01:56:38.265Z,1.48
2022-07-25T01:59:07.918Z,1.40
2022-07-25T02:01:35.613Z,1.20
2022-07-25T02:04:03.491Z,1.40
2022-07-25T02:06:31.587Z,1.63
2022-07-25T02:08:59.097Z,1.40
2022-07-25T02:11:26.614Z,1.50
2022-07-25T02:13:54.329Z,1.37
2022-07-25T02:16:22.008Z,1.60
2022-07-25T02:18:57.026Z,1.50
2022-07-25T02:21:24.652Z,1.63
2022-07-25T02:23:52.382Z,1.33
2022-07-25T02:26:20.073Z,1.50
2022-07-25T02:28:47.600Z,1.13
2022-07-25T02:31:15.547Z,1.70
2022-07-25T02:33:43.251Z,1.60
2022-07-25T02:36:11.641Z,1.63
2022-07-25T02:38:39.296Z,1.90
2022-07-25T02:41:07.063Z,1.60
2022-07-25T02:43:34.623Z,1.60
2022-07-25T02:46:02.477Z,1.70
2022-07-25T02:48:30.150Z,1.80
2022-07-25T02:50:57.893Z,1.60
2022-07-25T02:53:54.348Z,1.65
2022-07-25T02:56:14.172Z,1.77
2022-07-25T02:58:42.725Z,1.83
2022-07-25T03:01:10.421Z,1.70
2022-07-25T03:03:38.632Z,1.45
2022-07-25T03:06:06.343Z,1.77
2022-07-25T03:08:34.136Z,1.70
2022-07-25T03:11:01.793Z,1.65
2022-07-25T03:13:29.427Z,1.90
2022-07-25T03:15:57.198Z,1.83
2022-07-25T03:18:24.792Z,1.60
2022-07-25T03:20:52.335Z,1.60
2022-07-25T03:23:19.921Z,1.80
2022-07-25T03:25:47.547Z,1.52
2022-07-25T03:28:15.160Z,1.67
2022-07-25T03:30:42.816Z,2.00
2022-07-25T03:33:10.425Z,2.05
2022-07-25T03:35:38.704Z,2.13
2022-07-25T03:38:06.323Z,1.65
2022-07-25T03:40:33.855Z,1.53
2022-07-25T03:43:01.758Z,1.55
2022-07-25T03:45:29.448Z,1.80
2022-07-25T03:47:57.101Z,2.07
2022-07-25T03:50:24.866Z,1.92
2022-07-25T03:52:52.439Z,1.70
2022-07-25T03:55:20.028Z,1.73
2022-07-25T03:57:48.166Z,1.58
2022-07-25T04:00:16.691Z,1.70
2022-07-25T04:02:44.432Z,2.13
2022-07-25T04:05:12.464Z,2.00
2022-07-25T04:07:40.138Z,2.85
2022-07-25T04:10:07.995Z,2.03
2022-07-25T04:12:36.803Z,1.85
2022-07-25T04:15:04.865Z,2.00
2022-07-25T04:17:32.391Z,2.22
2022-07-25T04:20:00.682Z,2.17
2022-07-25T04:22:28.356Z,2.08
2022-07-25T04:24:56.076Z,2.50
2022-07-25T04:27:23.746Z,1.97
2022-07-25T04:29:51.761Z,2.00
2022-07-25T04:32:23.357Z,1.88
2022-07-25T04:34:52.590Z,1.80
2022-07-25T04:37:20.655Z,2.05
2022-07-25T04:39:48.368Z,2.17
2022-07-25T04:42:15.997Z,2.03
2022-07-25T04:44:43.874Z,2.00
2022-07-25T04:47:11.461Z,1.90
2022-07-25T04:49:39.105Z,2.08
2022-07-25T04:52:06.767Z,2.50
2022-07-25T04:54:34.714Z,2.72
2022-07-25T04:57:04.753Z,2.70
2022-07-25T04:59:32.568Z,2.30
2022-07-25T05:02:00.188Z,2.60
2022-07-25T05:04:28.867Z,2.88
2022-07-25T05:06:56.589Z,2.58
2022-07-25T05:09:24.473Z,2.55
2022-07-25T05:11:56.432Z,2.70
2022-07-25T05:14:24.247Z,2.72
2022-07-25T05:16:51.916Z,2.80
2022-07-25T05:19:19.696Z,2.60
2022-07-25T05:21:47.317Z,2.70
2022-07-25T05:24:15.237Z,2.67
2022-07-25T05:26:42.800Z,2.83
2022-07-25T05:29:10.648Z,2.70
2022-07-25T05:31:38.511Z,3.10
2022-07-25T05:34:07.332Z,3.00
2022-07-25T05:36:35.916Z,3.00
2022-07-25T05:39:03.724Z,2.80
2022-07-25T05:41:31.560Z,3.03
2022-07-25T05:43:59.105Z,2.57
2022-07-25T05:46:26.713Z,2.93
2022-07-25T05:48:54.550Z,2.78
2022-07-25T05:51:23.147Z,2.88
2022-07-25T05:53:52.236Z,2.80
2022-07-25T05:56:20.215Z,2.97
2022-07-25T05:58:47.820Z,3.50
2022-07-25T06:01:16.697Z,2.90
2022-07-25T06:03:44.245Z,2.35
2022-07-25T06:06:11.773Z,2.60
2022-07-25T06:08:39.955Z,3.10
2022-07-25T06:11:08.768Z,3.05
2022-07-25T06:13:37.121Z,2.63
2022-07-25T06:16:04.823Z,2.60
2022-07-25T06:18:32.436Z,2.50
2022-07-25T06:20:59.967Z,2.25
2022-07-25T06:23:27.999Z,2.40
2022-07-25T06:25:55.646Z,2.13
2022-07-25T06:28:23.405Z,2.47
2022-07-25T06:30:51.263Z,2.58
2022-07-25T06:33:18.790Z,2.15
2022-07-25T06:35:46.426Z,2.63
2022-07-25T06:38:14.167Z,1.90
2022-07-25T06:40:41.689Z,3.90
2022-07-25T06:43:09.290Z,2.70
2022-07-25T06:45:36.887Z,3.10
2022-07-25T06:48:04.521Z,2.27
2022-07-25T06:50:32.468Z,1.92
2022-07-25T06:53:00.100Z,2.08
2022-07-25T06:55:29.838Z,1.90
2022-07-25T06:57:57.505Z,2.08
2022-07-25T07:00:25.091Z,1.80
2022-07-25T07:02:56.459Z,2.40
2022-07-25T07:05:27.343Z,2.03
2022-07-25T07:07:54.904Z,2.10
2022-07-25T07:10:22.854Z,2.20
2022-07-25T07:12:50.832Z,2.25
2022-07-25T07:15:18.778Z,2.58
2022-07-25T07:17:46.392Z,2.42
2022-07-25T07:20:14.085Z,2.10
2022-07-25T07:22:48.818Z,2.28
2022-07-25T07:25:17.690Z,2.88
2022-07-25T07:27:47.700Z,2.67
2022-07-25T07:30:16.792Z,2.40
2022-07-25T07:32:47.464Z,2.25
2022-07-25T07:35:16.724Z,1.70
2022-07-25T07:37:45.065Z,1.75
2022-07-25T07:40:16.904Z,2.08
2022-07-25T07:42:46.669Z,2.10
2022-07-25T07:45:15.454Z,2.10
2022-07-25T07:47:43.453Z,1.90
2022-07-25T07:50:12.674Z,1.90
2022-07-25T07:52:40.252Z,1.38
2022-07-25T07:55:27.019Z,1.80
2022-07-25T07:57:54.756Z,2.10
2022-07-25T08:00:23.144Z,1.80
2022-07-25T08:02:52.263Z,1.60
2022-07-25T08:05:26.906Z,1.80
2022-07-25T08:07:55.121Z,2.05
2022-07-25T08:10:23.754Z,1.98
2022-07-25T08:12:51.665Z,1.77
2022-07-25T08:17:47.850Z,2.00
2022-07-25T08:20:37.113Z,1.92
2022-07-25T08:23:03.860Z,2.67
2022-07-25T08:25:31.811Z,1.52
2022-07-25T08:30:27.137Z,1.70
2022-07-25T08:32:56.486Z,2.08
2022-07-25T08:35:25.000Z,1.90
2022-07-25T08:37:53.226Z,1.70
2022-07-25T08:40:21.524Z,1.42
2022-07-25T08:42:49.437Z,1.48
2022-07-25T08:45:18.227Z,1.50
2022-07-25T08:47:46.456Z,1.50
2022-07-25T08:50:15.527Z,1.75
2022-07-25T08:52:44.383Z,1.52
2022-07-25T08:55:15.972Z,1.70
2022-07-25T08:57:44.160Z,1.60
2022-07-25T09:00:13.120Z,1.80
2022-07-25T09:02:40.816Z,1.83
2022-07-25T09:05:09.022Z,2.10
2022-07-25T09:07:38.612Z,2.47
2022-07-25T09:10:18.441Z,2.10
2022-07-25T09:13:07.927Z,1.70
2022-07-25T09:15:37.039Z,1.70
2022-07-25T09:18:08.825Z,1.73
2022-07-25T09:20:46.145Z,1.80
2022-07-25T09:23:14.742Z,2.10
2022-07-25T09:25:43.190Z,1.83
2022-07-25T09:28:12.310Z,1.77
2022-07-25T09:30:40.529Z,1.75
2022-07-25T09:33:08.197Z,1.70
2022-07-25T09:35:39.180Z,1.40
2022-07-25T09:38:14.938Z,1.50
2022-07-25T09:40:42.927Z,1.50
2022-07-25T09:43:10.669Z,1.55
2022-07-25T09:45:38.383Z,2.50
2022-07-25T09:48:06.130Z,3.33
2022-07-25T09:53:03.007Z,1.88
2022-07-25T09:55:31.203Z,1.60
2022-07-25T09:57:59.098Z,1.40
2022-07-25T10:00:27.989Z,1.50
2022-07-25T10:02:55.707Z,1.60
2022-07-25T10:12:59.139Z,1.50
2022-07-25T10:15:26.882Z,1.95
2022-07-25T10:20:28.194Z,2.10
2022-07-25T10:22:57.400Z,1.63
2022-07-25T10:25:25.770Z,1.60
2022-07-25T10:28:01.172Z,1.88
2022-07-25T10:30:36.872Z,2.30
2022-07-25T10:33:25.220Z,2.00
2022-07-25T10:35:52.563Z,1.67
2022-07-25T10:38:28.307Z,1.75
2022-07-25T10:41:00.974Z,1.92
2022-07-25T10:43:29.311Z,1.83
2022-07-25T10:46:00.187Z,1.80
2022-07-25T10:48:32.914Z,2.00
2022-07-25T10:51:12.049Z,1.92
2022-07-25T10:53:39.117Z,1.98
2022-07-25T10:56:10.615Z,1.77
2022-07-25T10:58:56.656Z,2.15
2022-07-25T11:01:32.293Z,1.95
2022-07-25T11:04:15.922Z,2.10
2022-07-25T11:06:43.670Z,1.90
2022-07-25T11:09:18.476Z,2.08
2022-07-25T11:11:49.459Z,2.20
2022-07-25T11:14:21.058Z,2.40
2022-07-25T11:16:50.624Z,2.35
2022-07-25T11:19:20.837Z,2.15
2022-07-25T11:21:50.956Z,2.20
2022-07-25T11:24:18.541Z,2.00
2022-07-25T11:29:29.660Z,2.40
2022-07-25T11:32:03.187Z,1.90
2022-07-25T11:34:33.944Z,2.20
2022-07-25T11:37:05.827Z,2.20
2022-07-25T11:39:35.747Z,1.98
2022-07-25T11:42:27.547Z,2.15
2022-07-25T11:44:54.982Z,2.17
2022-07-25T11:47:31.918Z,2.80
2022-07-25T11:50:11.238Z,2.45
2022-07-25T11:52:38.671Z,2.50
2022-07-25T11:55:08.715Z,2.20
2022-07-25T11:57:39.147Z,2.38
2022-07-25T12:00:15.301Z,2.42
2022-07-25T12:02:42.877Z,2.20
2022-07-25T12:07:45.338Z,2.20
2022-07-25T12:10:33.875Z,2.20
2022-07-25T12:13:03.962Z,2.15
2022-07-25T12:15:39.977Z,2.15
2022-07-25T12:18:12.614Z,2.75
2022-07-25T12:20:43.170Z,2.22
2022-07-25T12:23:13.561Z,2.22
2022-07-25T12:25:43.328Z,2.63
2022-07-25T12:28:11.756Z,2.15
2022-07-25T12:30:40.350Z,2.28
2022-07-25T12:33:07.676Z,1.92
2022-07-25T12:35:37.580Z,2.25
2022-07-25T12:38:05.419Z,2.47
2022-07-25T12:43:01.379Z,2.22
2022-07-25T12:45:28.567Z,2.35
2022-07-25T12:47:56.439Z,2.17
2022-07-25T12:52:54.237Z,2.70
2022-07-25T12:55:22.303Z,2.67
2022-07-25T12:57:49.900Z,2.42
2022-07-25T13:00:22.462Z,2.47
2022-07-25T13:02:52.244Z,2.65
2022-07-25T13:05:20.256Z,3.03
2022-07-25T13:07:49.107Z,3.10
2022-07-25T13:10:19.446Z,2.95
2022-07-25T13:12:47.545Z,3.75
2022-07-25T13:15:15.636Z,4.38
2022-07-25T13:17:42.922Z,3.97
2022-07-25T13:20:11.102Z,3.30
2022-07-25T13:22:38.751Z,2.50
2022-07-25T13:25:06.636Z,2.15
2022-07-25T13:30:01.088Z,2.57
2022-07-25T13:32:28.624Z,2.23
2022-07-25T13:34:55.885Z,2.58
2022-07-25T13:37:23.261Z,2.33
2022-07-25T13:39:50.492Z,2.47
2022-07-25T13:42:17.693Z,2.23
2022-07-25T13:44:45.151Z,2.03
2022-07-25T13:47:12.353Z,1.93
2022-07-25T13:49:40.759Z,2.58
2022-07-25T13:52:08.143Z,2.60
2022-07-25T13:54:35.404Z,2.65
2022-07-25T13:57:03.632Z,2.55
2022-07-25T13:59:30.848Z,2.53
2022-07-25T14:01:58.024Z,2.60
2022-07-25T14:04:25.381Z,2.40
2022-07-25T14:06:52.519Z,2.25
2022-07-25T14:09:24.135Z,2.10
2022-07-25T14:11:51.518Z,1.95
2022-07-25T14:14:19.024Z,2.30
2022-07-25T14:16:46.448Z,2.50
2022-07-25T14:19:13.663Z,2.20
2022-07-25T14:21:40.977Z,2.20
2022-07-25T14:24:08.514Z,2.50
2022-07-25T14:26:35.952Z,2.95
2022-07-25T14:29:04.376Z,2.90
2022-07-25T14:31:33.124Z,2.53
2022-07-25T14:34:00.346Z,2.55
2022-07-25T14:36:28.072Z,2.60
2022-07-25T14:38:55.235Z,2.42
2022-07-25T14:41:22.474Z,2.77
2022-07-25T14:43:49.807Z,3.38
2022-07-25T14:46:17.058Z,2.50
2022-07-25T14:48:44.521Z,2.47
2022-07-25T14:51:11.726Z,2.40
2022-07-25T14:53:39.328Z,2.28
2022-07-25T14:56:07.034Z,2.30
2022-07-25T14:58:34.633Z,2.28
2022-07-25T15:01:02.298Z,2.40
2022-07-25T15:03:29.534Z,3.55
2022-07-25T15:05:56.912Z,6.85
2022-07-25T15:08:24.152Z,2.80
2022-07-25T15:10:51.650Z,2.28
2022-07-25T15:13:34.180Z,2.45
2022-07-25T15:16:02.340Z,2.40
2022-07-25T15:18:29.572Z,2.63
2022-07-25T15:20:57.053Z,2.40
2022-07-25T15:23:25.545Z,2.03
2022-07-25T15:26:01.865Z,2.42
2022-07-25T15:28:32.393Z,2.38
2022-07-25T15:30:59.781Z,2.22
2022-07-25T15:33:27.049Z,2.10
2022-07-25T15:35:55.037Z,4.03
2022-07-25T15:40:49.803Z,2.47
2022-07-25T15:43:17.008Z,2.05
2022-07-25T15:45:46.287Z,2.10
2022-07-25T15:48:15.506Z,2.95
2022-07-25T15:50:46.381Z,2.47
2022-07-25T15:53:14.460Z,2.53
2022-07-25T15:55:42.385Z,2.55
2022-07-25T15:58:10.796Z,2.13
2022-07-25T16:00:39.443Z,2.70
2022-07-25T16:03:06.972Z,2.50
2022-07-25T16:05:34.500Z,2.88
2022-07-25T16:08:02.386Z,3.25
2022-07-25T16:10:31.815Z,3.88
2022-07-25T16:12:59.433Z,2.90
2022-07-25T16:15:26.628Z,2.60
2022-07-25T16:18:01.790Z,2.80
2022-07-25T16:20:31.683Z,2.70
2022-07-25T16:22:59.713Z,2.75
2022-07-25T16:25:28.853Z,2.72
2022-07-25T16:27:56.798Z,2.83
2022-07-25T16:30:24.005Z,2.90
2022-07-25T16:32:51.321Z,2.93
2022-07-25T16:35:18.609Z,2.80
2022-07-25T16:37:45.958Z,2.53
2022-07-25T16:40:14.588Z,2.73
2022-07-25T16:42:42.228Z,2.40
2022-07-25T16:45:09.962Z,2.42
2022-07-25T16:47:37.590Z,2.53
2022-07-25T16:50:05.212Z,2.92
2022-07-25T16:52:32.344Z,3.10
2022-07-25T16:54:59.639Z,3.10
2022-07-25T16:57:26.909Z,3.67
2022-07-25T16:59:54.085Z,4.00
2022-07-25T17:02:27.562Z,2.75
2022-07-25T17:04:56.823Z,2.63
2022-07-25T17:07:24.443Z,2.38
2022-07-25T17:09:52.132Z,2.15
2022-07-25T17:12:19.609Z,2.90
2022-07-25T17:14:46.827Z,3.70
2022-07-25T17:17:14.233Z,2.43
2022-07-25T17:19:41.408Z,2.30
2022-07-25T17:22:09.559Z,2.70
2022-07-25T17:24:36.983Z,2.92
2022-07-25T17:27:04.733Z,3.08
2022-07-25T17:29:32.053Z,2.53
2022-07-25T17:31:59.243Z,2.13
2022-07-25T17:34:27.171Z,2.42
2022-07-25T17:36:55.220Z,2.50
2022-07-25T17:39:22.408Z,2.50
2022-07-25T17:41:52.583Z,2.80
2022-07-25T17:44:20.362Z,3.25
2022-07-25T17:46:50.244Z,3.30
2022-07-25T17:49:18.116Z,3.13
2022-07-25T17:51:45.319Z,2.80
2022-07-25T17:54:12.602Z,3.17
2022-07-25T17:56:40.474Z,3.08
2022-07-25T17:59:08.749Z,3.25
2022-07-25T18:01:36.461Z,3.22
2022-07-25T18:04:04.301Z,3.08
2022-07-25T18:06:31.878Z,3.35
2022-07-25T18:08:59.201Z,3.45
2022-07-25T18:11:26.753Z,3.20
2022-07-25T18:13:53.841Z,3.65
2022-07-25T18:16:21.215Z,3.50
2022-07-25T18:18:48.506Z,3.28
2022-07-25T18:21:15.614Z,3.42
2022-07-25T18:23:42.772Z,3.58
2022-07-25T18:26:10.358Z,3.88
2022-07-25T18:28:37.680Z,3.08
2022-07-25T18:31:05.765Z,3.27
2022-07-25T18:33:32.990Z,3.47
2022-07-25T18:36:04.134Z,3.50
2022-07-25T18:38:34.919Z,3.60
2022-07-25T18:41:27.548Z,3.28
2022-07-25T18:43:51.006Z,3.33
2022-07-25T18:46:18.645Z,2.85
2022-07-25T18:48:46.183Z,3.00
2022-07-25T18:51:13.579Z,2.92
2022-07-25T18:53:44.730Z,3.20
2022-07-25T18:56:14.679Z,3.25
2022-07-25T18:58:41.835Z,3.15
2022-07-25T19:01:09.658Z,2.90
2022-07-25T19:03:37.748Z,3.30
2022-07-25T19:06:05.438Z,3.30
2022-07-25T19:08:32.962Z,3.08
2022-07-25T19:11:01.557Z,3.70
2022-07-25T19:13:48.364Z,3.00
2022-07-25T19:16:16.758Z,3.07
2022-07-25T19:18:44.434Z,3.03
2022-07-25T19:21:11.866Z,3.08
2022-07-25T19:23:39.022Z,2.60
2022-07-25T19:26:06.499Z,3.10
2022-07-25T19:28:35.108Z,2.80
2022-07-25T19:31:02.465Z,3.85
2022-07-25T19:33:35.011Z,3.93
2022-07-25T19:36:04.443Z,4.25
2022-07-25T19:38:31.960Z,4.38
2022-07-25T19:40:59.533Z,4.00
2022-07-25T19:43:26.916Z,4.15
2022-07-25T19:45:54.627Z,4.72
2022-07-25T19:48:24.070Z,4.75
2022-07-25T19:50:52.377Z,5.20
2022-07-25T19:53:19.531Z,4.50
2022-07-25T19:55:46.772Z,4.70
2022-07-25T19:58:13.967Z,5.15
2022-07-25T20:00:42.571Z,6.37
2022-07-25T20:05:38.639Z,5.30
2022-07-25T20:08:06.077Z,5.38
2022-07-25T20:10:33.751Z,5.30
2022-07-25T20:13:01.722Z,5.60
2022-07-25T20:17:57.087Z,5.67
2022-07-25T20:20:25.448Z,5.68
2022-07-25T20:25:20.662Z,5.60
2022-07-25T20:27:49.951Z,5.47
2022-07-25T20:30:18.229Z,5.18
2022-07-25T20:32:45.711Z,5.20
2022-07-25T20:35:13.339Z,5.43
2022-07-25T20:37:40.608Z,4.97
2022-07-25T20:40:09.581Z,5.60
2022-07-25T20:42:38.601Z,5.53
2022-07-25T20:45:07.370Z,5.72
2022-07-25T20:47:34.718Z,5.30
2022-07-25T20:50:02.507Z,5.40
2022-07-25T20:52:30.465Z,5.63
2022-07-25T20:54:57.667Z,5.30
2022-07-25T20:57:25.065Z,5.30
2022-07-25T20:59:52.232Z,4.72
2022-07-25T21:02:19.507Z,4.60
2022-07-25T21:04:48.638Z,4.95
2022-07-25T21:07:19.060Z,5.05
2022-07-25T21:09:46.322Z,4.80
2022-07-25T21:12:13.530Z,4.82
2022-07-25T21:14:40.716Z,4.82
2022-07-25T21:17:08.826Z,4.57
2022-07-25T21:19:35.968Z,4.43
2022-07-25T21:22:03.204Z,4.70
2022-07-25T21:24:30.601Z,5.22
2022-07-25T21:26:57.853Z,5.07
2022-07-25T21:29:25.052Z,5.22
2022-07-25T21:31:52.217Z,4.70
2022-07-25T21:34:21.804Z,5.88
2022-07-25T21:36:48.968Z,5.70
2022-07-25T21:39:16.738Z,5.20
2022-07-25T21:41:46.627Z,4.90
2022-07-25T21:44:14.037Z,4.55
2022-07-25T21:46:41.305Z,5.40
2022-07-25T21:52:13.891Z,4.43
2022-07-25T21:54:42.815Z,4.80
2022-07-25T21:57:13.717Z,4.80
2022-07-25T21:59:45.323Z,4.70
2022-07-25T22:02:13.167Z,4.55
2022-07-25T22:04:40.907Z,5.00
2022-07-25T22:07:08.687Z,4.57
2022-07-25T22:09:36.085Z,4.47
2022-07-25T22:12:04.557Z,4.27
2022-07-25T22:14:31.672Z,4.82
2022-07-25T22:16:59.286Z,4.90
2022-07-25T22:19:26.565Z,4.57
2022-07-25T22:21:54.261Z,5.07
2022-07-25T22:24:21.401Z,4.55
2022-07-25T22:26:48.533Z,5.30
2022-07-25T22:29:15.673Z,5.22
2022-07-25T22:31:44.554Z,5.25
2022-07-25T22:34:11.831Z,5.13
2022-07-25T22:36:39.689Z,5.03
2022-07-25T22:39:07.186Z,5.30
2022-07-25T22:41:34.943Z,5.07
2022-07-25T22:44:02.444Z,4.78
2022-07-25T22:46:30.688Z,4.47
2022-07-25T22:48:58.917Z,4.57
2022-07-25T22:51:26.853Z,5.07
2022-07-25T22:53:54.231Z,4.65
2022-07-25T22:56:21.933Z,4.40
2022-07-25T22:58:49.503Z,4.15
2022-07-25T23:01:20.576Z,4.13
2022-07-25T23:03:50.450Z,4.32
2022-07-25T23:06:19.834Z,4.35
2022-07-25T23:08:47.939Z,4.30
2022-07-25T23:11:15.298Z,4.70
2022-07-25T23:13:42.681Z,4.50
2022-07-25T23:16:10.699Z,4.07
2022-07-25T23:18:38.572Z,4.18
2022-07-25T23:21:06.624Z,4.30
2022-07-25T23:23:34.159Z,3.90
2022-07-25T23:26:01.474Z,3.78
2022-07-25T23:28:28.829Z,4.30
2022-07-25T23:30:56.145Z,4.32
2022-07-25T23:33:25.788Z,3.90
2022-07-25T23:35:54.227Z,3.90
2022-07-25T23:38:22.915Z,3.78
2022-07-25T23:40:50.349Z,3.47
2022-07-25T23:43:26.810Z,4.13
2022-07-25T23:46:05.577Z,3.67
2022-07-25T23:48:34.616Z,3.70
2022-07-25T23:51:02.026Z,3.60
2022-07-25T23:53:29.261Z,3.97
2022-07-25T23:55:56.435Z,3.60
2022-07-25T23:58:23.631Z,4.07
